createdAt,value
2024-04-18T00:01:27.798Z,99543.81
2024-04-18T00:03:54.747Z,99536.38
2024-04-18T00:06:22.043Z,99549.09
2024-04-18T00:08:49.260Z,99545.44
2024-04-18T00:11:25.172Z,99540.00
2024-04-18T00:13:52.173Z,99544.28
2024-04-18T00:16:37.263Z,99549.56
2024-04-18T00:19:17.184Z,99539.66
2024-04-18T00:21:57.790Z,99551.72
2024-04-18T00:24:30.690Z,99548.88
2024-04-18T00:26:58.053Z,99547.75
2024-04-18T00:29:38.409Z,99547.75
2024-04-18T00:32:12.277Z,99544.28
2024-04-18T00:34:59.503Z,99549.72
2024-04-18T00:37:34.869Z,99538.63
2024-04-18T00:40:01.859Z,99541.91
2024-04-18T00:42:40.675Z,99533.34
2024-04-18T00:45:08.408Z,99543.22
2024-04-18T00:47:49.875Z,99542.75
2024-04-18T00:50:19.738Z,99548.22
2024-04-18T00:52:48.688Z,99547.88
2024-04-18T00:55:30.022Z,99557.31
2024-04-18T00:58:12.821Z,99552.00
2024-04-18T01:00:43.897Z,99554.47
2024-04-18T01:03:30.135Z,99556.94
2024-04-18T01:06:10.036Z,99552.97
2024-04-18T01:08:56.692Z,99555.44
2024-04-18T01:11:31.321Z,99562.91
2024-04-18T01:14:00.146Z,99561.75
2024-04-18T01:16:29.775Z,99555.13
2024-04-18T01:18:56.669Z,99560.75
2024-04-18T01:21:23.558Z,99557.28
2024-04-18T01:23:51.371Z,99555.13
2024-04-18T01:26:20.026Z,99561.38
2024-04-18T01:28:46.884Z,99559.84
2024-04-18T01:31:31.782Z,99561.22
2024-04-18T01:33:59.049Z,99560.69
2024-04-18T01:36:26.404Z,99560.06
2024-04-18T01:38:53.575Z,99551.16
2024-04-18T01:41:33.447Z,99567.00
2024-04-18T01:44:00.512Z,99566.84
2024-04-18T01:46:46.135Z,99561.56
2024-04-18T01:49:30.775Z,99578.38
2024-04-18T01:51:57.602Z,99573.63
2024-04-18T01:54:34.493Z,99574.75
2024-04-18T01:57:02.189Z,99577.09
2024-04-18T01:59:50.112Z,99570.44
2024-04-18T02:02:17.257Z,99569.94
2024-04-18T02:05:04.242Z,99576.22
2024-04-18T02:07:43.527Z,99581.06
2024-04-18T02:10:10.619Z,99583.19
2024-04-18T02:12:57.847Z,99591.06
2024-04-18T02:15:54.253Z,99589.38
2024-04-18T02:18:21.384Z,99590.19
2024-04-18T02:20:48.257Z,99594.84
2024-04-18T02:23:24.628Z,99595.34
2024-04-18T02:25:51.756Z,99596.47
2024-04-18T02:28:18.596Z,99601.13
2024-04-18T02:30:45.813Z,99590.50
2024-04-18T02:33:17.495Z,99595.47
2024-04-18T02:35:45.763Z,99594.09
2024-04-18T02:38:33.151Z,99596.13
2024-04-18T02:41:04.574Z,99593.63
2024-04-18T02:43:51.804Z,99596.44
2024-04-18T02:46:18.936Z,99596.22
2024-04-18T02:49:04.666Z,99596.03
2024-04-18T02:51:31.798Z,99599.84
2024-04-18T02:54:14.678Z,99604.31
2024-04-18T02:56:42.166Z,99598.00
2024-04-18T02:59:09.609Z,99589.28
2024-04-18T03:01:51.156Z,99598.91
2024-04-18T03:04:19.890Z,99600.38
2024-04-18T03:06:47.502Z,99602.28
2024-04-18T03:09:15.890Z,99602.22
2024-04-18T03:11:55.426Z,99605.41
2024-04-18T03:14:50.422Z,99611.16
2024-04-18T03:17:37.438Z,99602.72
2024-04-18T03:20:04.670Z,99601.94
2024-04-18T03:22:51.475Z,99602.91
2024-04-18T03:25:18.434Z,99597.44
2024-04-18T03:28:02.589Z,99597.16
2024-04-18T03:30:29.517Z,99582.34
2024-04-18T03:33:09.251Z,99589.50
2024-04-18T03:35:39.811Z,99584.22
2024-04-18T03:38:16.185Z,99597.06
2024-04-18T03:40:43.112Z,99598.41
2024-04-18T03:43:10.019Z,99601.72
2024-04-18T03:45:37.050Z,99604.06
2024-04-18T03:48:22.622Z,99610.63
2024-04-18T03:50:49.709Z,99614.09
2024-04-18T03:53:19.738Z,99613.38
2024-04-18T03:55:46.665Z,99620.22
2024-04-18T03:58:13.758Z,99616.91
2024-04-18T04:00:48.655Z,99628.53
2024-04-18T04:03:15.819Z,99629.69
2024-04-18T04:05:42.733Z,99631.63
2024-04-18T04:08:10.781Z,99643.84
2024-04-18T04:10:43.445Z,99635.31
2024-04-18T04:13:10.591Z,99648.81
2024-04-18T04:15:52.595Z,99652.31
2024-04-18T04:18:38.234Z,99660.34
2024-04-18T04:21:37.661Z,99663.53
2024-04-18T04:24:05.008Z,99661.88
2024-04-18T04:26:50.850Z,99666.56
2024-04-18T04:29:17.913Z,99663.59
2024-04-18T04:31:44.952Z,99672.97
2024-04-18T04:34:13.860Z,99670.81
2024-04-18T04:36:40.779Z,99680.56
2024-04-18T04:39:07.608Z,99675.66
2024-04-18T04:41:41.051Z,99678.31
2024-04-18T04:44:08.087Z,99681.25
2024-04-18T04:46:52.263Z,99689.03
2024-04-18T04:49:20.423Z,99690.22
2024-04-18T04:52:03.585Z,99682.66
2024-04-18T04:54:43.222Z,99690.03
2024-04-18T04:57:11.479Z,99697.09
2024-04-18T04:59:38.630Z,99698.16
2024-04-18T05:02:05.910Z,99693.88
2024-04-18T05:04:49.196Z,99705.56
2024-04-18T05:07:32.979Z,99702.59
2024-04-18T05:10:19.989Z,99710.53
2024-04-18T05:12:47.025Z,99707.44
2024-04-18T05:15:34.664Z,99713.50
2024-04-18T05:18:01.785Z,99706.97
2024-04-18T05:20:28.711Z,99706.13
2024-04-18T05:22:58.647Z,99716.19
2024-04-18T05:25:25.854Z,99714.41
2024-04-18T05:28:15.003Z,99720.44
2024-04-18T05:31:03.127Z,99722.44
2024-04-18T05:33:34.809Z,99726.94
2024-04-18T05:36:02.468Z,99723.16
2024-04-18T05:38:30.196Z,99725.31
2024-04-18T05:40:57.234Z,99718.88
2024-04-18T05:43:44.062Z,99724.78
2024-04-18T05:46:11.125Z,99729.34
2024-04-18T05:48:38.174Z,99723.22
2024-04-18T05:51:06.309Z,99720.63
2024-04-18T05:53:33.112Z,99723.00
2024-04-18T05:56:00.170Z,99719.06
2024-04-18T05:58:27.323Z,99723.00
2024-04-18T06:00:54.336Z,99723.13
2024-04-18T06:03:24.164Z,99717.00
2024-04-18T06:05:51.174Z,99717.22
2024-04-18T06:08:18.107Z,99719.41
2024-04-18T06:10:45.024Z,99707.06
2024-04-18T06:13:24.018Z,99721.22
2024-04-18T06:15:51.271Z,99713.53
2024-04-18T06:18:18.523Z,99711.41
2024-04-18T06:20:47.359Z,99712.78
2024-04-18T06:23:15.177Z,99708.50
2024-04-18T06:25:42.872Z,99710.97
2024-04-18T06:28:11.868Z,99707.19
2024-04-18T06:30:39.647Z,99710.38
2024-04-18T06:33:11.056Z,99700.81
2024-04-18T06:35:38.063Z,99697.81
2024-04-18T06:38:04.970Z,99700.53
2024-04-18T06:40:31.903Z,99701.00
2024-04-18T06:42:58.721Z,99699.34
2024-04-18T06:45:26.452Z,99701.00
2024-04-18T06:47:53.916Z,99701.53
2024-04-18T06:50:24.237Z,99695.03
2024-04-18T06:52:53.441Z,99703.88
2024-04-18T06:55:20.336Z,99696.56
2024-04-18T06:57:47.326Z,99690.91
2024-04-18T07:00:14.546Z,99695.88
2024-04-18T07:02:41.803Z,99699.38
2024-04-18T07:05:27.526Z,99701.63
2024-04-18T07:08:14.557Z,99703.06
2024-04-18T07:10:41.636Z,99699.94
2024-04-18T07:13:54.090Z,99707.69
2024-04-18T07:16:30.136Z,99712.31
2024-04-18T07:18:57.464Z,99721.56
2024-04-18T07:21:24.455Z,99725.22
2024-04-18T07:24:11.590Z,99727.97
2024-04-18T07:26:41.423Z,99733.97
2024-04-18T07:29:08.327Z,99734.09
2024-04-18T07:31:35.368Z,99740.72
2024-04-18T07:34:16.254Z,99744.88
2024-04-18T07:36:49.976Z,99745.75
2024-04-18T07:39:17.331Z,99757.97
2024-04-18T07:41:44.208Z,99758.16
2024-04-18T07:44:13.492Z,99743.38
2024-04-18T07:46:41.263Z,99747.78
2024-04-18T07:49:09.318Z,99748.78
2024-04-18T07:51:36.625Z,99748.47
2024-04-18T07:54:03.604Z,99757.06
2024-04-18T07:56:30.889Z,99755.09
2024-04-18T07:58:59.079Z,99758.53
2024-04-18T08:01:27.571Z,99761.00
2024-04-18T08:04:16.943Z,99753.25
2024-04-18T08:06:47.144Z,99760.91
2024-04-18T08:09:19.520Z,99761.69
2024-04-18T08:14:22.072Z,99760.88
2024-04-18T08:16:51.850Z,99755.34
2024-04-18T08:19:18.658Z,99769.88
2024-04-18T08:21:45.601Z,99772.47
2024-04-18T08:24:20.169Z,99770.19
2024-04-18T08:26:47.084Z,99760.63
2024-04-18T08:29:13.918Z,99772.63
2024-04-18T08:31:40.926Z,99782.34
2024-04-18T08:34:15.975Z,99779.88
2024-04-18T08:36:45.066Z,99787.06
2024-04-18T08:39:11.959Z,99790.59
2024-04-18T08:41:41.093Z,99783.63
2024-04-18T08:44:10.340Z,99788.56
2024-04-18T08:46:38.154Z,99799.22
2024-04-18T08:49:09.428Z,99783.97
2024-04-18T08:51:38.250Z,99790.16
2024-04-18T08:54:06.320Z,99794.69
2024-04-18T08:56:35.646Z,99791.38
2024-04-18T08:59:03.107Z,99789.41
2024-04-18T09:01:30.042Z,99791.75
2024-04-18T09:03:58.643Z,99790.72
2024-04-18T09:06:26.398Z,99788.66
2024-04-18T09:08:53.644Z,99799.66
2024-04-18T09:11:20.867Z,99795.81
2024-04-18T09:13:48.338Z,99796.94
2024-04-18T09:16:15.496Z,99791.22
2024-04-18T09:18:42.484Z,99797.28
2024-04-18T09:21:13.420Z,99801.03
2024-04-18T09:23:41.191Z,99792.84
2024-04-18T09:26:08.600Z,99801.53
2024-04-18T09:28:35.840Z,99795.00
2024-04-18T09:31:06.497Z,99781.44
2024-04-18T09:33:36.712Z,99798.22
2024-04-18T09:36:04.141Z,99795.56
2024-04-18T09:38:35.300Z,99800.47
2024-04-18T09:41:11.465Z,99795.66
2024-04-18T09:43:45.940Z,99802.78
2024-04-18T09:46:15.260Z,99807.34
2024-04-18T09:48:42.466Z,99800.75
2024-04-18T09:51:10.440Z,99801.06
2024-04-18T09:53:38.404Z,99803.84
2024-04-18T09:56:06.569Z,99799.22
2024-04-18T09:58:34.780Z,99802.69
2024-04-18T10:01:03.009Z,99794.06
2024-04-18T10:03:30.350Z,99795.75
2024-04-18T10:06:02.150Z,99800.75
2024-04-18T10:08:34.587Z,99803.44
2024-04-18T10:11:02.206Z,99795.63
2024-04-18T10:13:29.693Z,99799.59
2024-04-18T10:16:12.913Z,99796.63
2024-04-18T10:18:41.436Z,99799.41
2024-04-18T10:21:22.512Z,99802.75
2024-04-18T10:23:55.157Z,99804.31
2024-04-18T10:26:23.365Z,99794.44
2024-04-18T10:28:51.425Z,99807.25
2024-04-18T10:31:19.823Z,99812.16
2024-04-18T10:33:47.187Z,99800.56
2024-04-18T10:36:15.481Z,99801.50
2024-04-18T10:38:45.119Z,99803.44
2024-04-18T10:41:17.263Z,99805.63
2024-04-18T10:43:45.327Z,99808.75
2024-04-18T10:46:14.015Z,99801.84
2024-04-18T10:48:44.219Z,99809.28
2024-04-18T10:51:11.233Z,99812.41
2024-04-18T10:53:39.347Z,99808.88
2024-04-18T10:56:06.631Z,99802.88
2024-04-18T10:58:33.800Z,99807.81
2024-04-18T11:01:02.040Z,99810.88
2024-04-18T11:03:29.295Z,99806.44
2024-04-18T11:06:01.119Z,99808.88
2024-04-18T11:08:35.064Z,99809.00
2024-04-18T11:11:04.471Z,99808.84
2024-04-18T11:13:31.708Z,99810.41
2024-04-18T11:15:58.736Z,99809.59
2024-04-18T11:18:26.014Z,99814.84
2024-04-18T11:20:54.098Z,99815.22
2024-04-18T11:23:35.275Z,99813.97
2024-04-18T11:26:14.025Z,99814.97
2024-04-18T11:28:41.398Z,99827.97
2024-04-18T11:31:08.309Z,99814.19
2024-04-18T11:33:35.271Z,99813.75
2024-04-18T11:36:02.316Z,99823.19
2024-04-18T11:38:30.663Z,99817.53
2024-04-18T11:40:58.827Z,99817.44
2024-04-18T11:43:25.811Z,99817.75
2024-04-18T11:45:54.906Z,99815.72
2024-04-18T11:48:21.975Z,99818.97
2024-04-18T11:50:48.866Z,99809.38
2024-04-18T11:53:15.688Z,99823.91
2024-04-18T11:55:42.623Z,99827.31
2024-04-18T11:58:27.767Z,99830.56
2024-04-18T12:00:54.797Z,99833.09
2024-04-18T12:03:38.727Z,99832.97
2024-04-18T12:06:25.959Z,99833.28
2024-04-18T12:08:55.181Z,99836.81
2024-04-18T12:11:30.062Z,99842.66
2024-04-18T12:14:13.294Z,99840.50
2024-04-18T12:16:56.986Z,99835.72
2024-04-18T12:19:44.599Z,99837.38
2024-04-18T12:22:32.199Z,99835.91
2024-04-18T12:25:18.624Z,99840.44
2024-04-18T12:27:46.908Z,99848.84
2024-04-18T12:30:33.046Z,99843.31
2024-04-18T12:33:18.798Z,99845.72
2024-04-18T12:35:46.004Z,99850.13
2024-04-18T12:38:13.044Z,99838.31
2024-04-18T12:40:43.228Z,99845.03
2024-04-18T12:43:10.261Z,99849.59
2024-04-18T12:46:00.177Z,99845.66
2024-04-18T12:48:57.839Z,99852.75
2024-04-18T12:51:25.210Z,99853.09
2024-04-18T12:53:54.712Z,99852.91
2024-04-18T12:56:41.841Z,99849.00
2024-04-18T12:59:21.422Z,99848.31
2024-04-18T13:01:48.391Z,99853.75
2024-04-18T13:04:21.455Z,99847.81
2024-04-18T13:06:48.918Z,99853.84
2024-04-18T13:09:28.075Z,99855.41
2024-04-18T13:11:59.580Z,99858.59
2024-04-18T13:14:26.535Z,99860.47
2024-04-18T13:16:55.734Z,99866.44
2024-04-18T13:19:42.774Z,99875.25
2024-04-18T13:22:15.715Z,99863.78
2024-04-18T13:24:42.845Z,99876.44
2024-04-18T13:27:25.495Z,99865.41
2024-04-18T13:29:56.256Z,99871.97
2024-04-18T13:32:39.598Z,99880.88
2024-04-18T13:35:07.838Z,99879.88
2024-04-18T13:37:35.001Z,99889.47
2024-04-18T13:40:19.067Z,99891.16
2024-04-18T13:42:55.216Z,99885.16
2024-04-18T13:45:29.299Z,99889.66
2024-04-18T13:47:56.468Z,99878.28
2024-04-18T13:50:42.082Z,99883.03
2024-04-18T13:53:09.074Z,99889.59
2024-04-18T13:55:44.614Z,99887.72
2024-04-18T13:58:11.512Z,99881.75
2024-04-18T14:00:56.699Z,99877.91
2024-04-18T14:03:30.389Z,99890.97
2024-04-18T14:06:08.616Z,99889.06
2024-04-18T14:08:40.062Z,99882.16
2024-04-18T14:11:27.867Z,99887.19
2024-04-18T14:14:09.087Z,99880.84
2024-04-18T14:16:56.171Z,99888.09
2024-04-18T14:19:33.321Z,99890.94
2024-04-18T14:22:07.967Z,99882.69
2024-04-18T14:24:35.236Z,99878.94
2024-04-18T14:27:02.459Z,99887.72
2024-04-18T14:29:29.321Z,99888.97
2024-04-18T14:32:01.611Z,99890.06
2024-04-18T14:34:48.172Z,99889.97
2024-04-18T14:37:17.384Z,99897.47
2024-04-18T14:39:44.464Z,99890.38
2024-04-18T14:42:11.539Z,99892.97
2024-04-18T14:44:38.493Z,99897.75
2024-04-18T14:47:18.160Z,99898.22
2024-04-18T14:50:00.495Z,99902.09
2024-04-18T14:52:33.779Z,99900.25
2024-04-18T14:55:00.942Z,99903.47
2024-04-18T14:57:34.379Z,99897.97
2024-04-18T15:00:19.899Z,99900.34
2024-04-18T15:02:47.087Z,99897.97
2024-04-18T15:05:33.282Z,99903.94
2024-04-18T15:08:00.753Z,99912.94
2024-04-18T15:10:46.697Z,99908.34
2024-04-18T15:13:13.644Z,99909.81
2024-04-18T15:15:42.547Z,99912.09
2024-04-18T15:18:09.686Z,99904.38
2024-04-18T15:20:36.645Z,99900.44
2024-04-18T15:23:12.508Z,99907.19
2024-04-18T15:25:39.303Z,99911.44
2024-04-18T15:28:06.509Z,99904.75
2024-04-18T15:30:33.781Z,99911.00
2024-04-18T15:33:13.364Z,99913.47
2024-04-18T15:35:42.291Z,99923.13
2024-04-18T15:38:17.917Z,99919.28
2024-04-18T15:41:03.901Z,99918.09
2024-04-18T15:43:39.582Z,99915.47
2024-04-18T15:46:26.427Z,99922.56
2024-04-18T15:49:07.926Z,99923.31
2024-04-18T15:51:35.015Z,99920.66
2024-04-18T15:54:08.041Z,99923.59
2024-04-18T15:56:35.012Z,99922.47
2024-04-18T15:59:01.885Z,99926.16
2024-04-18T16:01:47.868Z,99928.66
2024-04-18T16:04:34.834Z,99931.03
2024-04-18T16:07:02.281Z,99936.72
2024-04-18T16:09:48.000Z,99946.09
2024-04-18T16:12:21.506Z,99942.38
2024-04-18T16:15:05.190Z,99947.28
2024-04-18T16:17:32.298Z,99950.59
2024-04-18T16:20:12.910Z,99946.09
2024-04-18T16:22:39.864Z,99943.75
2024-04-18T16:25:25.561Z,99951.94
2024-04-18T16:27:52.541Z,99950.25
2024-04-18T16:30:20.854Z,99947.34
2024-04-18T16:32:50.754Z,99946.31
2024-04-18T16:35:17.885Z,99952.28
2024-04-18T16:38:04.900Z,99962.34
2024-04-18T16:40:49.827Z,99966.50
2024-04-18T16:43:36.287Z,99970.16
2024-04-18T16:46:05.263Z,99970.34
2024-04-18T16:48:32.091Z,99977.03
2024-04-18T16:50:59.224Z,99980.81
2024-04-18T16:53:46.033Z,99984.56
2024-04-18T16:56:15.832Z,99979.63
2024-04-18T16:58:55.752Z,99984.75
2024-04-18T17:01:23.146Z,99991.81
2024-04-18T17:03:50.436Z,99999.50
2024-04-18T17:06:41.982Z,100000.50
2024-04-18T17:09:14.774Z,100000.72
2024-04-18T17:11:41.807Z,100010.91
2024-04-18T17:14:27.248Z,100008.94
2024-04-18T17:16:54.253Z,100008.94
2024-04-18T17:19:21.417Z,100020.13
2024-04-18T17:21:48.677Z,100021.31
2024-04-18T17:24:15.805Z,100024.16
2024-04-18T17:27:04.525Z,100028.84
2024-04-18T17:29:31.482Z,100032.03
2024-04-18T17:31:58.346Z,100038.34
2024-04-18T17:34:25.274Z,100037.56
2024-04-18T17:36:52.169Z,100040.72
2024-04-18T17:39:39.250Z,100041.69
2024-04-18T17:42:06.432Z,100053.19
2024-04-18T17:44:53.243Z,100045.41
2024-04-18T17:47:26.265Z,100053.41
2024-04-18T17:49:53.166Z,100059.06
2024-04-18T17:52:24.970Z,100067.25
2024-04-18T17:54:53.244Z,100055.47
2024-04-18T17:57:21.318Z,100066.09
2024-04-18T18:00:09.899Z,100074.09
2024-04-18T18:02:39.463Z,100077.72
2024-04-18T18:05:06.468Z,100076.91
2024-04-18T18:07:33.584Z,100075.94
2024-04-18T18:10:00.416Z,100085.72
2024-04-18T18:12:27.451Z,100087.22
2024-04-18T18:14:54.585Z,100094.03
2024-04-18T18:17:21.428Z,100103.69
2024-04-18T18:19:48.339Z,100104.69
2024-04-18T18:22:15.194Z,100109.53
2024-04-18T18:24:42.193Z,100119.28
2024-04-18T18:27:09.237Z,100116.97
2024-04-18T18:29:36.454Z,100116.31
2024-04-18T18:32:14.614Z,100121.28
2024-04-18T18:34:47.027Z,100129.25
2024-04-18T18:37:14.883Z,100125.09
2024-04-18T18:39:42.645Z,100125.28
2024-04-18T18:42:09.719Z,100134.72
2024-04-18T18:44:36.561Z,100136.72
2024-04-18T18:47:03.469Z,100145.34
2024-04-18T18:49:48.690Z,100149.50
2024-04-18T18:52:15.673Z,100157.66
2024-04-18T18:54:42.529Z,100153.47
2024-04-18T18:57:09.619Z,100155.63
2024-04-18T18:59:36.450Z,100148.84
2024-04-18T19:02:03.361Z,100158.75
2024-04-18T19:04:50.251Z,100168.75
2024-04-18T19:07:17.322Z,100174.69
2024-04-18T19:09:44.534Z,100167.72
2024-04-18T19:12:12.704Z,100168.75
2024-04-18T19:14:39.540Z,100175.69
2024-04-18T19:17:07.580Z,100178.13
2024-04-18T19:19:35.190Z,100173.66
2024-04-18T19:22:04.063Z,100176.78
2024-04-18T19:24:31.085Z,100177.28
2024-04-18T19:27:00.854Z,100184.22
2024-04-18T19:29:39.198Z,100197.47
2024-04-18T19:32:11.831Z,100197.47
2024-04-18T19:34:38.652Z,100198.47
2024-04-18T19:37:05.827Z,100214.06
2024-04-18T19:39:32.816Z,100217.63
2024-04-18T19:42:01.066Z,100216.69
2024-04-18T19:44:28.252Z,100211.72
2024-04-18T19:46:55.123Z,100221.97
2024-04-18T19:49:22.106Z,100224.06
2024-04-18T19:52:01.533Z,100215.63
2024-04-18T19:54:31.100Z,100224.59
2024-04-18T19:56:57.960Z,100240.97
2024-04-18T19:59:24.875Z,100236.13
2024-04-18T20:01:51.791Z,100238.56
2024-04-18T20:04:18.953Z,100236.25
2024-04-18T20:06:45.892Z,100242.41
2024-04-18T20:09:12.741Z,100246.41
2024-04-18T20:11:39.701Z,100243.25
2024-04-18T20:14:06.585Z,100246.88
2024-04-18T20:16:33.703Z,100240.53
2024-04-18T20:19:14.151Z,100236.25
2024-04-18T20:21:43.330Z,100245.63
2024-04-18T20:24:11.494Z,100245.00
2024-04-18T20:26:56.801Z,100248.28
2024-04-18T20:29:43.749Z,100251.09
2024-04-18T20:32:26.970Z,100248.19
2024-04-18T20:34:54.635Z,100252.19
2024-04-18T20:37:24.076Z,100248.03
2024-04-18T20:39:55.350Z,100257.88
2024-04-18T20:42:24.429Z,100247.97
2024-04-18T20:45:03.141Z,100261.63
2024-04-18T20:47:30.542Z,100260.59
2024-04-18T20:49:57.828Z,100273.69
2024-04-18T20:52:25.046Z,100277.28
2024-04-18T20:54:52.087Z,100267.19
2024-04-18T20:57:19.142Z,100269.41
2024-04-18T20:59:46.097Z,100270.75
2024-04-18T21:02:13.049Z,100277.72
2024-04-18T21:04:41.202Z,100278.78
2024-04-18T21:07:08.064Z,100283.25
2024-04-18T21:09:35.087Z,100285.06
2024-04-18T21:12:01.936Z,100281.06
2024-04-18T21:14:28.818Z,100287.34
2024-04-18T21:16:55.984Z,100288.91
2024-04-18T21:19:23.100Z,100289.28
2024-04-18T21:21:50.004Z,100287.47
2024-04-18T21:24:17.055Z,100289.16
2024-04-18T21:26:48.122Z,100287.34
2024-04-18T21:29:16.302Z,100290.97
2024-04-18T21:31:43.593Z,100289.28
2024-04-18T21:34:12.241Z,100293.13
2024-04-18T21:36:39.908Z,100288.50
2024-04-18T21:39:06.882Z,100285.84
2024-04-18T21:41:35.720Z,100294.41
2024-04-18T21:44:02.576Z,100297.06
2024-04-18T21:46:29.387Z,100310.69
2024-04-18T21:48:56.292Z,100302.59
2024-04-18T21:51:23.201Z,100297.53
2024-04-18T21:53:50.091Z,100300.84
2024-04-18T21:56:17.092Z,100307.63
2024-04-18T21:58:43.953Z,100311.16
2024-04-18T22:01:30.776Z,100315.56
2024-04-18T22:03:58.123Z,100312.38
2024-04-18T22:06:25.598Z,100306.09
2024-04-18T22:08:52.678Z,100325.50
2024-04-18T22:11:19.530Z,100309.88
2024-04-18T22:13:46.919Z,100323.31
2024-04-18T22:16:13.822Z,100324.03
2024-04-18T22:18:40.794Z,100330.59
2024-04-18T22:21:07.663Z,100332.28
2024-04-18T22:23:34.582Z,100325.00
2024-04-18T22:26:01.401Z,100343.81
2024-04-18T22:28:28.244Z,100341.59
2024-04-18T22:31:00.320Z,100354.84
2024-04-18T22:33:28.636Z,100345.16
2024-04-18T22:35:56.362Z,100346.78
2024-04-18T22:38:23.484Z,100339.84
2024-04-18T22:40:50.433Z,100345.88
2024-04-18T22:43:17.799Z,100345.06
2024-04-18T22:45:44.942Z,100351.63
2024-04-18T22:48:12.538Z,100354.69
2024-04-18T22:50:43.166Z,100349.28
2024-04-18T22:53:10.279Z,100355.53
2024-04-18T22:55:37.181Z,100354.28
2024-04-18T22:58:05.758Z,100350.09
2024-04-18T23:00:36.195Z,100358.47
2024-04-18T23:03:03.528Z,100362.50
2024-04-18T23:05:37.026Z,100359.00
2024-04-18T23:08:04.544Z,100353.31
2024-04-18T23:10:33.243Z,100354.16
2024-04-18T23:13:00.570Z,100361.94
2024-04-18T23:15:45.825Z,100358.31
2024-04-18T23:18:13.055Z,100361.78
2024-04-18T23:20:40.066Z,100354.97
2024-04-18T23:23:07.595Z,100356.69
2024-04-18T23:25:34.410Z,100365.72
2024-04-18T23:28:01.481Z,100356.94
2024-04-18T23:30:28.400Z,100364.47
2024-04-18T23:32:55.355Z,100370.03
2024-04-18T23:35:22.324Z,100354.06
2024-04-18T23:37:49.184Z,100362.94
2024-04-18T23:40:16.083Z,100366.31
2024-04-18T23:42:42.964Z,100357.94
2024-04-18T23:45:09.807Z,100358.78
2024-04-18T23:47:36.971Z,100363.94
2024-04-18T23:50:03.964Z,100362.81
2024-04-18T23:52:30.887Z,100362.53
2024-04-18T23:54:57.827Z,100366.00
2024-04-18T23:57:26.755Z,100355.03
2024-04-18T23:59:53.796Z,100355.88
